SEAM/ATF METAR and TAF weather

Enter ICAO airport designator
Station Type Date Time Source
SEAM METAR 2020/01/17 19:00 UTC NOAA

SEAM 171900Z 19008KT 9999 SCT015 BKN090 17/14 Q1029


Station Type Date Time Source
SEAM Decoded METAR 2020/01/17 19:00 UTC NOAA

Ambato / Chachoan, Ecuador (SEAM) 01-12S 078-34W
Jan 17, 2020 - 02:00 PM EST / 2020.01.17 1900 UTC
Wind: from the S (190 degrees) at 9 MPH (8 KT):0
Visibility: greater than 7 mile(s):0
Sky conditions: mostly cloudy
Temperature: 62 F (17 C)
Dew Point: 57 F (14 C)
Relative Humidity: 82%
Pressure (altimeter): 30.39 in. Hg (1029 hPa)
ob: SEAM 171900Z 19008KT 9999 SCT015 BKN090 17/14 Q1029
cycle: 19

Station Type Date Time Source
SEAM TAF UTC NOAA

Error!

Example: see airport list